createdAt,value
2018-10-05T00:00:17.077Z,90.69
2018-10-05T00:01:17.052Z,91.00
2018-10-05T00:02:17.035Z,91.31
2018-10-05T00:03:17.030Z,90.80
2018-10-05T00:04:17.037Z,91.11
2018-10-05T00:05:17.030Z,90.08
2018-10-05T00:06:16.995Z,90.69
2018-10-05T00:07:16.982Z,89.97
2018-10-05T00:08:16.998Z,89.77
2018-10-05T00:09:16.963Z,91.31
2018-10-05T00:10:16.999Z,91.21
2018-10-05T00:11:16.941Z,91.52
2018-10-05T00:12:16.925Z,91.00
2018-10-05T00:13:16.923Z,91.21
2018-10-05T00:14:16.904Z,90.69
2018-10-05T00:15:16.898Z,90.59
2018-10-05T00:16:16.924Z,91.62
2018-10-05T00:17:16.872Z,91.11
2018-10-05T00:18:16.855Z,90.39
2018-10-05T00:19:16.848Z,90.18
2018-10-05T00:20:16.875Z,89.77
2018-10-05T00:21:16.843Z,89.40
2018-10-05T00:22:16.837Z,89.09
2018-10-05T00:23:16.804Z,89.29
2018-10-05T00:24:16.795Z,90.01
2018-10-05T00:25:16.783Z,89.71
2018-10-05T00:26:16.794Z,90.53
2018-10-05T00:27:16.770Z,90.53
2018-10-05T00:28:16.769Z,90.18
2018-10-05T00:29:16.738Z,90.22
2018-10-05T00:30:16.731Z,89.19
2018-10-05T00:31:16.715Z,88.68
2018-10-05T00:32:16.727Z,87.96
2018-10-05T00:33:16.712Z,89.40
2018-10-05T00:34:16.713Z,89.71
2018-10-05T00:35:16.691Z,89.40
2018-10-05T00:36:16.658Z,89.61
2018-10-05T00:37:16.653Z,89.91
2018-10-05T00:38:16.637Z,89.61
2018-10-05T00:39:16.632Z,89.19
2018-10-05T00:40:16.670Z,88.57
2018-10-05T00:41:16.624Z,89.40
2018-10-05T00:42:16.594Z,89.40
2018-10-05T00:43:16.585Z,90.06
2018-10-05T00:44:16.587Z,87.65
2018-10-05T00:45:16.567Z,88.37
2018-10-05T00:46:16.605Z,88.41
2018-10-05T00:47:16.535Z,87.99
2018-10-05T00:48:16.553Z,89.03
2018-10-05T00:49:16.516Z,89.54
2018-10-05T00:50:16.500Z,90.37
2018-10-05T00:51:16.490Z,90.01
2018-10-05T00:52:16.488Z,90.57
2018-10-05T00:53:16.503Z,91.50
2018-10-05T00:54:16.475Z,91.91
2018-10-05T00:55:16.455Z,91.40
2018-10-05T00:56:16.470Z,91.50
2018-10-05T00:57:16.425Z,91.09
2018-10-05T00:58:16.424Z,89.75
2018-10-05T00:59:16.397Z,89.95
2018-10-05T01:00:16.394Z,89.89
2018-10-05T01:01:16.381Z,90.16
2018-10-05T01:02:16.383Z,89.65
2018-10-05T01:03:16.355Z,89.75
2018-10-05T01:04:16.376Z,89.28
2018-10-05T01:05:16.338Z,89.23
2018-10-05T01:06:16.326Z,89.79
2018-10-05T01:07:16.363Z,90.31
2018-10-05T01:08:16.310Z,89.69
2018-10-05T01:09:16.292Z,89.38
2018-10-05T01:10:16.290Z,89.48
2018-10-05T01:11:16.316Z,89.89
2018-10-05T01:12:16.255Z,90.41
2018-10-05T01:13:16.277Z,89.58
2018-10-05T01:14:16.242Z,90.00
2018-10-05T01:15:16.224Z,90.20
2018-10-05T01:16:16.278Z,89.28
2018-10-05T01:17:16.204Z,89.38
2018-10-05T01:18:16.192Z,89.48
2018-10-05T01:19:16.175Z,90.20
2018-10-05T01:20:16.167Z,90.92
2018-10-05T01:21:16.154Z,90.31
2018-10-05T01:22:16.186Z,90.72
2018-10-05T01:23:16.162Z,90.72
2018-10-05T01:24:16.119Z,89.79
2018-10-05T01:25:16.117Z,89.73
2018-10-05T01:26:16.835Z,89.69
2018-10-05T01:27:16.093Z,90.35
2018-10-05T01:28:16.091Z,91.44
2018-10-05T01:29:16.121Z,91.34
2018-10-05T01:30:16.061Z,91.44
2018-10-05T01:31:16.062Z,91.75
2018-10-05T01:32:16.032Z,92.16
2018-10-05T01:33:16.023Z,91.44
2018-10-05T01:34:16.018Z,91.48
2018-10-05T01:35:16.034Z,91.24
2018-10-05T01:36:15.990Z,91.75
2018-10-05T01:37:16.020Z,91.34
2018-10-05T01:38:15.967Z,90.76
2018-10-05T01:39:15.957Z,91.07
2018-10-05T01:40:15.959Z,90.45
2018-10-05T01:41:15.964Z,89.89
2018-10-05T01:42:15.928Z,90.25
2018-10-05T01:43:15.928Z,90.14
2018-10-05T01:44:15.952Z,89.32
2018-10-05T01:45:15.894Z,88.70
2018-10-05T01:46:15.881Z,88.90
2018-10-05T01:47:15.890Z,89.73
2018-10-05T01:48:15.857Z,90.35
2018-10-05T01:49:15.849Z,91.28
2018-10-05T01:50:15.874Z,90.10
2018-10-05T01:51:15.830Z,89.62
2018-10-05T01:52:15.812Z,89.83
2018-10-05T01:53:15.821Z,90.35
2018-10-05T01:54:15.798Z,89.56
2018-10-05T01:55:15.802Z,90.76
2018-10-05T01:56:15.770Z,90.86
2018-10-05T01:57:15.755Z,90.35
2018-10-05T01:58:15.745Z,90.04
2018-10-05T01:59:15.746Z,90.20
2018-10-05T02:00:15.744Z,90.45
2018-10-05T02:01:15.760Z,90.55
2018-10-05T02:02:15.765Z,90.66
2018-10-05T02:03:15.769Z,90.59
2018-10-05T02:04:15.678Z,90.55
2018-10-05T02:05:15.745Z,89.62
2018-10-05T02:06:15.748Z,90.14
2018-10-05T02:07:15.672Z,89.56
2018-10-05T02:08:15.670Z,89.46
2018-10-05T02:09:15.671Z,89.73
2018-10-05T02:10:15.676Z,88.53
2018-10-05T02:11:15.663Z,87.19
2018-10-05T02:12:15.671Z,87.50
2018-10-05T02:13:15.632Z,89.56
2018-10-05T02:14:15.631Z,88.64
2018-10-05T02:15:15.556Z,89.46
2018-10-05T02:16:15.640Z,89.77
2018-10-05T02:17:15.633Z,90.91
2018-10-05T02:18:15.556Z,91.42
2018-10-05T02:19:15.559Z,91.01
2018-10-05T02:20:15.553Z,91.42
2018-10-05T02:21:15.532Z,91.94
2018-10-05T02:22:15.553Z,91.89
2018-10-05T02:23:15.557Z,92.55
2018-10-05T02:24:15.518Z,92.14
2018-10-05T02:25:15.456Z,91.52
2018-10-05T02:26:15.437Z,91.83
2018-10-05T02:27:15.436Z,91.63
2018-10-05T02:28:15.520Z,91.52
2018-10-05T02:29:15.455Z,90.39
2018-10-05T02:30:15.446Z,91.01
2018-10-05T02:31:15.452Z,90.28
2018-10-05T02:32:15.415Z,90.39
2018-10-05T02:33:15.427Z,91.01
2018-10-05T02:34:15.404Z,91.52
2018-10-05T02:35:15.409Z,91.32
2018-10-05T02:36:15.334Z,91.52
2018-10-05T02:37:15.407Z,91.73
2018-10-05T02:38:15.323Z,92.25
2018-10-05T02:39:15.327Z,92.14
2018-10-05T02:40:15.329Z,92.14
2018-10-05T02:41:15.343Z,91.94
2018-10-05T02:42:15.336Z,91.83
2018-10-05T02:43:15.310Z,91.52
2018-10-05T02:44:15.328Z,92.14
2018-10-05T02:45:15.291Z,92.25
2018-10-05T02:46:15.215Z,91.63
2018-10-05T02:47:15.293Z,92.35
2018-10-05T02:48:15.296Z,91.42
2018-10-05T02:49:15.221Z,92.04
2018-10-05T02:50:15.223Z,92.25
2018-10-05T02:51:15.214Z,92.25
2018-10-05T02:52:15.187Z,91.73
2018-10-05T02:53:15.201Z,91.88
2018-10-05T02:54:15.188Z,91.52
2018-10-05T02:55:15.117Z,91.32
2018-10-05T02:56:15.111Z,91.88
2018-10-05T02:57:15.102Z,91.46
2018-10-05T02:58:15.098Z,91.52
2018-10-05T02:59:15.182Z,91.83
2018-10-05T03:00:15.099Z,92.19
2018-10-05T03:01:15.102Z,91.77
2018-10-05T03:02:15.073Z,91.63
2018-10-05T03:03:15.107Z,91.22
2018-10-05T03:04:15.073Z,91.67
2018-10-05T03:05:15.065Z,92.04
2018-10-05T03:06:15.076Z,92.04
2018-10-05T03:07:14.983Z,91.77
2018-10-05T03:08:14.985Z,91.88
2018-10-05T03:09:14.989Z,92.60
2018-10-05T03:10:14.988Z,91.98
2018-10-05T03:11:15.068Z,92.04
2018-10-05T03:12:14.986Z,92.60
2018-10-05T03:13:14.961Z,91.77
2018-10-05T03:14:14.968Z,92.40
2018-10-05T03:15:14.953Z,91.98
2018-10-05T03:16:14.961Z,91.77
2018-10-05T03:17:14.952Z,92.08
2018-10-05T03:18:15.830Z,89.92
2018-10-05T03:19:14.872Z,91.46
2018-10-05T03:20:14.877Z,90.84
2018-10-05T03:21:14.873Z,91.77
2018-10-05T03:22:14.875Z,91.26
2018-10-05T03:23:14.858Z,91.56
2018-10-05T03:24:14.849Z,91.88
2018-10-05T03:25:14.848Z,91.50
2018-10-05T03:26:14.839Z,91.98
2018-10-05T03:27:14.843Z,92.19
2018-10-05T03:28:14.757Z,91.77
2018-10-05T03:29:14.840Z,92.08
2018-10-05T03:30:14.777Z,92.08
2018-10-05T03:31:14.763Z,92.08
2018-10-05T03:32:14.760Z,92.08
2018-10-05T03:33:14.763Z,91.46
2018-10-05T03:34:14.730Z,91.36
2018-10-05T03:35:14.744Z,92.08
2018-10-05T03:36:14.728Z,92.44
2018-10-05T03:37:14.654Z,91.88
2018-10-05T03:38:14.655Z,91.61
2018-10-05T03:39:14.730Z,91.30
2018-10-05T03:40:14.650Z,91.61
2018-10-05T03:41:14.651Z,91.82
2018-10-05T03:42:14.752Z,91.88
2018-10-05T03:43:14.655Z,91.92
2018-10-05T03:44:14.615Z,92.54
2018-10-05T03:45:14.625Z,91.82
2018-10-05T03:46:14.615Z,92.33
2018-10-05T03:47:14.544Z,92.23
2018-10-05T03:48:14.629Z,91.92
2018-10-05T03:49:14.538Z,91.40
2018-10-05T03:50:14.533Z,91.50
2018-10-05T03:51:14.538Z,92.02
2018-10-05T03:52:14.535Z,91.50
2018-10-05T03:53:14.617Z,90.89
2018-10-05T03:54:14.503Z,92.13
2018-10-05T03:55:14.507Z,91.92
2018-10-05T03:56:14.500Z,92.13
2018-10-05T03:57:14.500Z,91.30
2018-10-05T03:58:14.428Z,92.02
2018-10-05T03:59:14.513Z,92.02
2018-10-05T04:00:14.504Z,90.99
2018-10-05T04:01:14.423Z,92.44
2018-10-05T04:02:14.421Z,90.26
2018-10-05T04:03:14.430Z,88.86
2018-10-05T04:04:14.385Z,90.20
2018-10-05T04:05:14.504Z,89.79
2018-10-05T04:06:14.400Z,90.20
2018-10-05T04:07:14.387Z,91.44
2018-10-05T04:08:14.314Z,90.78
2018-10-05T04:09:14.304Z,91.44
2018-10-05T04:10:14.313Z,91.96
2018-10-05T04:11:14.322Z,91.75
2018-10-05T04:12:14.406Z,91.44
2018-10-05T04:13:14.392Z,91.55
2018-10-05T04:14:14.281Z,91.03
2018-10-05T04:15:14.286Z,90.72
2018-10-05T04:16:14.315Z,92.17
2018-10-05T04:17:14.277Z,91.75
2018-10-05T04:18:14.281Z,93.10
2018-10-05T04:19:14.207Z,94.23
2018-10-05T04:20:14.200Z,93.62
2018-10-05T04:21:14.327Z,93.41
2018-10-05T04:22:14.202Z,91.96
2018-10-05T04:23:14.281Z,91.96
2018-10-05T04:24:14.169Z,90.52
2018-10-05T04:25:14.200Z,91.17
2018-10-05T04:26:14.163Z,90.52
2018-10-05T04:27:14.342Z,90.00
2018-10-05T04:28:14.088Z,90.31
2018-10-05T04:29:14.160Z,90.20
2018-10-05T04:30:14.088Z,91.44
2018-10-05T04:31:14.165Z,91.55
2018-10-05T04:32:14.169Z,91.96
2018-10-05T04:33:14.097Z,92.17
2018-10-05T04:34:14.092Z,92.17
2018-10-05T04:35:14.081Z,92.17
2018-10-05T04:36:14.047Z,91.96
2018-10-05T04:37:14.080Z,92.58
2018-10-05T04:38:13.981Z,92.07
2018-10-05T04:39:14.049Z,91.13
2018-10-05T04:40:13.972Z,92.00
2018-10-05T04:41:14.171Z,92.38
2018-10-05T04:42:14.056Z,92.07
2018-10-05T04:43:13.988Z,93.04
2018-10-05T04:44:13.967Z,91.75
2018-10-05T04:45:13.936Z,91.90
2018-10-05T04:46:13.977Z,92.11
2018-10-05T04:47:13.939Z,91.38
2018-10-05T04:48:13.863Z,91.38
2018-10-05T04:49:13.853Z,91.96
2018-10-05T04:50:13.935Z,91.49
2018-10-05T04:51:13.959Z,92.11
2018-10-05T04:52:13.950Z,91.69
2018-10-05T04:53:13.936Z,91.90
2018-10-05T04:55:32.299Z,91.59
2018-10-05T04:56:31.915Z,92.42
2018-10-05T04:57:31.872Z,93.04
2018-10-05T04:58:31.748Z,92.00
2018-10-05T04:59:31.824Z,93.14
2018-10-05T05:00:31.752Z,92.11
2018-10-05T05:01:31.822Z,93.24
2018-10-05T05:02:31.822Z,92.93
2018-10-05T05:03:31.985Z,92.27
2018-10-05T05:04:31.706Z,91.69
2018-10-05T05:05:31.757Z,92.93
2018-10-05T05:06:31.714Z,92.93
2018-10-05T05:07:31.708Z,92.83
2018-10-05T05:08:31.827Z,93.04
2018-10-05T05:09:31.634Z,92.42
2018-10-05T05:10:31.639Z,92.00
2018-10-05T05:11:31.837Z,92.32
2018-10-05T05:12:31.950Z,92.63
2018-10-05T05:13:31.710Z,92.00
2018-10-05T05:14:31.730Z,92.21
2018-10-05T05:15:31.713Z,92.00
2018-10-05T05:17:57.547Z,92.00
2018-10-05T05:18:57.034Z,92.32
2018-10-05T05:19:56.936Z,92.21
2018-10-05T05:20:56.915Z,91.90
2018-10-05T05:21:56.949Z,92.11
2018-10-05T05:22:56.962Z,92.11
2018-10-05T05:23:56.820Z,92.93
2018-10-05T05:24:56.726Z,93.04
2018-10-05T05:25:56.799Z,93.76
2018-10-05T05:26:56.718Z,92.83
2018-10-05T05:27:56.729Z,92.97
2018-10-05T05:28:56.737Z,92.63
2018-10-05T05:29:56.718Z,92.21
2018-10-05T05:30:56.733Z,92.42
2018-10-05T05:31:56.691Z,92.36
2018-10-05T05:32:56.684Z,93.45
2018-10-05T05:33:56.766Z,93.76
2018-10-05T05:34:56.606Z,92.52
2018-10-05T05:35:56.686Z,93.35
2018-10-05T05:36:56.688Z,93.87
2018-10-05T05:37:56.608Z,93.45
2018-10-05T05:38:56.603Z,94.18
2018-10-05T05:39:56.608Z,94.07
2018-10-05T05:40:56.569Z,93.97
2018-10-05T05:41:56.571Z,93.97
2018-10-05T05:42:56.623Z,94.18
2018-10-05T05:43:56.571Z,94.18
2018-10-05T05:44:56.495Z,94.28
2018-10-05T05:45:56.528Z,94.18
2018-10-05T05:46:56.649Z,94.79
2018-10-05T05:47:56.575Z,95.21
2018-10-05T05:48:56.496Z,95.42
2018-10-05T05:49:56.573Z,93.66
2018-10-05T05:50:56.503Z,93.97
2018-10-05T05:51:56.459Z,93.87
2018-10-05T05:52:56.502Z,94.69
2018-10-05T05:53:56.503Z,94.79
2018-10-05T05:54:56.458Z,94.69
2018-10-05T05:55:56.395Z,93.76
2018-10-05T05:56:57.299Z,94.18
2018-10-05T05:57:56.381Z,94.90
2018-10-05T05:58:56.473Z,94.59
2018-10-05T05:59:56.379Z,95.21
2018-10-05T06:00:56.407Z,94.90
2018-10-05T06:01:56.346Z,94.38
2018-10-05T06:02:56.344Z,94.59
2018-10-05T06:03:56.345Z,95.00
2018-10-05T06:04:56.388Z,95.00
2018-10-05T06:05:56.265Z,95.10
2018-10-05T06:06:56.275Z,95.06
2018-10-05T06:07:56.342Z,95.17
2018-10-05T06:08:56.349Z,95.99
2018-10-05T06:09:56.271Z,95.27
2018-10-05T06:10:56.269Z,95.89
2018-10-05T06:11:56.229Z,95.89
2018-10-05T06:12:56.231Z,96.20
2018-10-05T06:13:56.276Z,96.09
2018-10-05T06:14:56.233Z,95.06
2018-10-05T06:15:56.213Z,95.37
2018-10-05T06:16:56.152Z,94.65
2018-10-05T06:17:56.165Z,95.57
2018-10-05T06:18:56.160Z,94.96
2018-10-05T06:19:56.235Z,94.75
2018-10-05T06:20:56.172Z,94.75
2018-10-05T06:21:56.429Z,95.27
2018-10-05T06:22:56.119Z,95.12
2018-10-05T06:23:56.118Z,95.89
2018-10-05T06:24:56.122Z,95.43
2018-10-05T06:25:56.119Z,96.41
2018-10-05T06:26:56.041Z,95.74
2018-10-05T06:27:56.057Z,96.15
2018-10-05T06:28:56.043Z,96.26
2018-10-05T06:29:56.160Z,96.67
2018-10-05T06:30:56.161Z,96.77
2018-10-05T06:31:56.006Z,96.88
2018-10-05T06:32:56.026Z,96.88
2018-10-05T06:33:56.006Z,96.88
2018-10-05T06:34:56.004Z,97.08
2018-10-05T06:35:56.006Z,96.88
2018-10-05T06:36:56.007Z,96.88
2018-10-05T06:37:55.940Z,97.14
2018-10-05T06:38:55.954Z,97.25
2018-10-05T06:39:55.930Z,96.42
2018-10-05T06:40:55.937Z,96.62
2018-10-05T06:41:55.964Z,97.04
2018-10-05T06:42:57.931Z,96.83
2018-10-05T06:43:55.892Z,97.97
2018-10-05T06:44:55.895Z,97.61
2018-10-05T06:45:55.892Z,97.72
2018-10-05T06:46:55.892Z,97.30
2018-10-05T06:47:55.895Z,97.61
2018-10-05T06:48:55.811Z,97.76
2018-10-05T06:49:55.896Z,96.83
2018-10-05T06:50:55.908Z,96.79
2018-10-05T06:51:55.813Z,96.79
2018-10-05T06:52:55.780Z,97.72
2018-10-05T06:53:55.778Z,97.61
2018-10-05T06:54:55.899Z,97.41
2018-10-05T06:55:55.779Z,98.19
2018-10-05T06:56:55.780Z,97.26
2018-10-05T06:57:55.780Z,97.41
2018-10-05T06:58:55.781Z,97.77
2018-10-05T06:59:55.782Z,97.77
2018-10-05T07:00:55.901Z,96.44
2018-10-05T07:01:55.877Z,96.95
2018-10-05T07:02:55.663Z,97.47
2018-10-05T07:03:55.670Z,98.03
2018-10-05T07:04:55.665Z,98.14
2018-10-05T07:05:55.665Z,98.45
2018-10-05T07:06:55.787Z,98.30
2018-10-05T07:07:55.797Z,98.35
2018-10-05T07:08:55.668Z,98.14
2018-10-05T07:09:55.668Z,98.20
2018-10-05T07:10:55.668Z,98.41
2018-10-05T07:11:55.670Z,98.92
2018-10-05T07:12:55.669Z,99.29
2018-10-05T07:13:55.552Z,99.18
2018-10-05T07:14:55.551Z,99.18
2018-10-05T07:15:55.621Z,99.60
2018-10-05T07:16:55.602Z,99.08
2018-10-05T07:17:55.553Z,98.83
2018-10-05T07:18:55.553Z,98.93
2018-10-05T07:19:55.556Z,98.62
2018-10-05T07:20:55.558Z,99.04
2018-10-05T07:21:55.556Z,98.83
2018-10-05T07:22:55.436Z,98.99
2018-10-05T07:23:55.437Z,98.99
2018-10-05T07:24:55.563Z,98.99
2018-10-05T07:25:55.479Z,98.79
2018-10-05T07:26:55.440Z,98.99
2018-10-05T07:27:55.439Z,99.05
2018-10-05T07:28:55.441Z,99.15
2018-10-05T07:29:55.441Z,98.94
2018-10-05T07:30:55.443Z,99.05
2018-10-05T07:31:55.442Z,99.21
2018-10-05T07:32:55.323Z,98.79
2018-10-05T07:33:55.325Z,98.79
2018-10-05T07:34:55.444Z,98.79
2018-10-05T07:35:55.324Z,98.24
2018-10-05T07:36:55.366Z,98.03
2018-10-05T07:37:55.450Z,97.82
2018-10-05T07:38:55.329Z,97.72
2018-10-05T07:39:55.328Z,97.82
2018-10-05T07:40:55.328Z,98.08
2018-10-05T07:41:56.888Z,97.83
2018-10-05T07:42:55.269Z,98.04
2018-10-05T07:43:55.213Z,98.51
2018-10-05T07:44:55.331Z,98.16
2018-10-05T07:45:55.211Z,99.28
2018-10-05T07:46:55.213Z,99.44
2018-10-05T07:47:55.213Z,99.40
2018-10-05T07:48:55.215Z,99.99
2018-10-05T07:49:55.214Z,99.99
2018-10-05T07:50:55.215Z,99.99
2018-10-05T07:51:55.355Z,99.99
2018-10-05T07:52:55.221Z,99.99
2018-10-05T07:53:55.219Z,99.99
2018-10-05T07:54:55.098Z,99.99
2018-10-05T07:55:55.098Z,99.99
2018-10-05T07:56:55.103Z,99.99
2018-10-05T07:57:55.108Z,99.99
2018-10-05T07:58:55.222Z,99.99
2018-10-05T07:59:55.107Z,99.99
2018-10-05T08:00:55.100Z,99.99
2018-10-05T08:01:55.107Z,99.99
2018-10-05T08:02:55.103Z,99.99
2018-10-05T08:03:54.987Z,99.99
2018-10-05T08:04:55.104Z,99.99
2018-10-05T08:05:54.985Z,99.99
2018-10-05T08:06:54.985Z,99.99
2018-10-05T08:07:54.986Z,99.99
2018-10-05T08:08:54.988Z,99.99
2018-10-05T08:09:55.114Z,99.99
2018-10-05T08:10:54.988Z,99.99
2018-10-05T08:11:54.989Z,99.99
2018-10-05T08:12:54.989Z,99.99
2018-10-05T08:13:54.871Z,99.99
2018-10-05T08:14:54.995Z,99.99
2018-10-05T08:15:54.991Z,99.99
2018-10-05T08:16:54.998Z,99.99
2018-10-05T08:17:54.878Z,99.93
2018-10-05T08:18:54.873Z,98.91
2018-10-05T08:19:54.877Z,96.47
2018-10-05T08:20:54.906Z,94.29
2018-10-05T08:21:54.882Z,86.82
2018-10-05T08:22:54.876Z,90.23
2018-10-05T08:23:54.762Z,90.29
2018-10-05T08:24:54.758Z,87.04
2018-10-05T08:25:54.879Z,86.19
2018-10-05T08:27:16.520Z,84.36
2018-10-05T08:27:54.788Z,83.61
2018-10-05T08:28:54.760Z,81.13
2018-10-05T08:29:54.762Z,81.30
2018-10-05T08:30:54.882Z,76.80
2018-10-05T08:31:54.800Z,80.55
2018-10-05T08:32:54.765Z,78.28
2018-10-05T08:33:54.645Z,79.30
2018-10-05T08:34:54.764Z,80.18
2018-10-05T08:35:54.651Z,77.10
2018-10-05T08:36:54.645Z,74.98
2018-10-05T08:37:54.649Z,76.90
2018-10-05T08:38:54.650Z,79.29
2018-10-05T08:39:54.759Z,77.06
2018-10-05T08:40:54.769Z,73.83
2018-10-05T08:41:54.648Z,79.55
2018-10-05T08:42:54.650Z,72.04
2018-10-05T08:43:54.650Z,74.57
2018-10-05T08:44:54.650Z,72.21
2018-10-05T08:45:54.582Z,74.43
2018-10-05T08:46:54.532Z,75.04
2018-10-05T08:47:54.654Z,72.07
2018-10-05T08:48:54.540Z,72.34
2018-10-05T08:49:54.573Z,71.53
2018-10-05T08:50:54.654Z,68.17
2018-10-05T08:51:54.682Z,67.97
2018-10-05T08:52:54.538Z,65.92
2018-10-05T08:53:54.538Z,65.89
2018-10-05T08:54:54.417Z,65.62
2018-10-05T08:55:54.418Z,67.30
2018-10-05T08:56:54.550Z,65.46
2018-10-05T08:57:54.421Z,65.16
2018-10-05T08:58:54.427Z,64.22
2018-10-05T08:59:54.423Z,64.25
2018-10-05T09:00:54.422Z,64.15
2018-10-05T09:01:54.543Z,65.73
2018-10-05T09:02:54.428Z,65.22
2018-10-05T09:03:54.439Z,67.97
2018-10-05T09:04:54.425Z,63.65
2018-10-05T09:05:54.413Z,63.31
2018-10-05T09:06:54.326Z,60.60
2018-10-05T09:07:54.427Z,60.89
2018-10-05T09:08:54.307Z,60.57
2018-10-05T09:09:54.307Z,60.16
2018-10-05T09:10:54.310Z,62.75
2018-10-05T09:11:54.431Z,60.53
2018-10-05T09:12:54.308Z,58.05
2018-10-05T09:13:54.310Z,60.57
2018-10-05T09:14:54.315Z,59.96
2018-10-05T09:15:54.194Z,62.55
2018-10-05T09:16:54.193Z,60.27
2018-10-05T09:17:54.314Z,62.65
2018-10-05T09:18:54.194Z,60.44
2018-10-05T09:19:54.193Z,61.57
2018-10-05T09:20:54.195Z,65.16
2018-10-05T09:21:54.194Z,63.05
2018-10-05T09:22:54.316Z,59.43
2018-10-05T09:23:54.196Z,59.30
2018-10-05T09:24:54.197Z,57.70
2018-10-05T09:25:54.198Z,60.71
2018-10-05T09:26:54.079Z,59.00
2018-10-05T09:27:54.199Z,58.67
2018-10-05T09:28:54.104Z,58.07
2018-10-05T09:29:54.081Z,56.93
2018-10-05T09:30:54.082Z,58.07
2018-10-05T09:31:54.082Z,56.66
2018-10-05T09:32:54.083Z,55.86
2018-10-05T09:33:54.204Z,56.59
2018-10-05T09:34:54.084Z,55.88
2018-10-05T09:35:54.085Z,56.92
2018-10-05T09:36:54.086Z,57.35
2018-10-05T09:37:54.300Z,59.26
2018-10-05T09:38:54.088Z,57.04
2018-10-05T09:39:53.967Z,57.88
2018-10-05T09:40:53.968Z,57.30
2018-10-05T09:41:54.015Z,59.01
2018-10-05T09:42:54.117Z,58.61
2018-10-05T09:46:46.650Z,60.85
2018-10-05T09:47:46.293Z,60.85
2018-10-05T09:48:46.171Z,59.44
2018-10-05T09:49:46.227Z,60.25
2018-10-05T09:50:46.060Z,61.25
2018-10-05T09:51:45.970Z,59.95
2018-10-05T09:52:46.096Z,59.84
2018-10-05T09:53:45.936Z,60.05
2018-10-05T09:54:45.937Z,59.75
2018-10-05T09:55:46.058Z,60.35
2018-10-05T09:56:45.938Z,60.25
2018-10-05T09:57:45.939Z,59.64
2018-10-05T09:58:45.940Z,60.25
2018-10-05T09:59:46.087Z,60.35
2018-10-05T10:00:45.942Z,60.78
2018-10-05T10:01:45.822Z,60.88
2018-10-05T10:02:45.823Z,61.49
2018-10-05T10:03:45.824Z,61.49
2018-10-05T10:04:45.824Z,61.39
2018-10-05T10:05:45.944Z,61.49
2018-10-05T10:06:45.825Z,61.49
2018-10-05T10:07:45.842Z,61.29
2018-10-05T10:08:45.828Z,61.08
2018-10-05T10:09:45.827Z,61.89
2018-10-05T10:10:45.828Z,62.29
2018-10-05T10:11:45.831Z,62.60
2018-10-05T10:12:45.710Z,61.39
2018-10-05T10:13:45.770Z,61.69
2018-10-05T10:14:45.710Z,60.71
2018-10-05T10:15:45.742Z,61.72
2018-10-05T10:16:45.743Z,61.49
2018-10-05T10:17:45.959Z,61.59
2018-10-05T10:18:45.713Z,61.89
2018-10-05T10:19:45.714Z,60.98
2018-10-05T10:20:45.714Z,61.39
2018-10-05T10:21:45.715Z,62.70
2018-10-05T10:22:45.785Z,62.19
2018-10-05T10:23:45.598Z,61.39
2018-10-05T10:24:45.598Z,61.49
2018-10-05T10:25:45.599Z,61.59
2018-10-05T10:26:45.599Z,61.69
2018-10-05T10:27:45.781Z,62.19
2018-10-05T10:28:45.844Z,62.70
2018-10-05T10:29:45.600Z,62.80
2018-10-05T10:30:45.724Z,61.99
2018-10-05T10:31:45.606Z,61.89
2018-10-05T10:32:45.483Z,61.79
2018-10-05T10:33:45.668Z,62.90
2018-10-05T10:34:45.504Z,62.09
2018-10-05T10:35:45.485Z,62.70
2018-10-05T10:36:45.491Z,61.86
2018-10-05T10:37:45.485Z,62.16
2018-10-05T10:38:45.610Z,62.29
2018-10-05T10:39:45.534Z,62.60
2018-10-05T10:40:45.609Z,62.09
2018-10-05T10:41:45.488Z,62.09
2018-10-05T10:42:45.431Z,62.60
2018-10-05T10:43:45.377Z,63.78
2018-10-05T10:44:45.371Z,62.57
2018-10-05T10:45:45.490Z,62.06
2018-10-05T10:46:45.493Z,62.66
2018-10-05T10:47:45.375Z,62.57
2018-10-05T10:48:45.373Z,62.77
2018-10-05T10:49:45.374Z,62.77
2018-10-05T10:50:45.375Z,62.57
2018-10-05T10:51:45.495Z,62.26
2018-10-05T10:52:45.256Z,62.57
2018-10-05T10:53:45.284Z,61.93
2018-10-05T10:54:45.257Z,61.56
2018-10-05T10:55:45.258Z,62.06
2018-10-05T10:56:45.260Z,62.37
2018-10-05T10:57:45.380Z,61.73
2018-10-05T10:58:45.265Z,60.22
2018-10-05T10:59:45.381Z,60.49
2018-10-05T11:00:45.419Z,60.60
2018-10-05T11:01:45.297Z,61.00
2018-10-05T11:02:45.264Z,59.06
2018-10-05T11:03:45.146Z,57.95
2018-10-05T11:04:45.149Z,59.26
2018-10-05T11:05:45.266Z,59.03
2018-10-05T11:06:45.147Z,59.63
2018-10-05T11:07:45.147Z,58.95
2018-10-05T11:08:45.148Z,59.46
2018-10-05T11:09:45.150Z,59.66
2018-10-05T11:10:45.267Z,60.57
2018-10-05T11:11:45.150Z,60.16
2018-10-05T11:12:45.150Z,59.69
2018-10-05T11:13:45.150Z,60.06
2018-10-05T11:14:45.031Z,59.96
2018-10-05T11:15:45.032Z,59.06
2018-10-05T11:16:45.035Z,58.95
2018-10-05T11:17:45.034Z,59.66
2018-10-05T11:18:45.170Z,59.66
2018-10-05T11:19:45.154Z,58.65
2018-10-05T11:20:45.034Z,58.93
2018-10-05T11:21:45.036Z,59.03
2018-10-05T11:22:45.043Z,57.42
2018-10-05T11:23:44.930Z,56.51
2018-10-05T11:24:45.037Z,56.99
2018-10-05T11:25:44.918Z,57.50
2018-10-05T11:26:44.934Z,55.88
2018-10-05T11:27:44.921Z,56.69
2018-10-05T11:28:44.927Z,54.85
2018-10-05T11:29:45.096Z,56.46
2018-10-05T11:30:44.921Z,54.96
2018-10-05T11:31:44.921Z,52.82
2018-10-05T11:32:44.923Z,53.42
2018-10-05T11:33:44.922Z,54.72
2018-10-05T11:34:44.923Z,53.62
2018-10-05T11:35:44.848Z,52.09
2018-10-05T11:36:44.805Z,53.39
2018-10-05T11:37:44.805Z,51.76
2018-10-05T11:38:44.806Z,53.64
2018-10-05T11:39:44.807Z,51.17
2018-10-05T11:40:44.861Z,51.87
2018-10-05T11:41:44.807Z,50.94
2018-10-05T11:42:44.808Z,52.77
2018-10-05T11:43:44.809Z,52.84
2018-10-05T11:44:44.812Z,52.64
2018-10-05T11:45:44.811Z,51.34
2018-10-05T11:46:44.692Z,51.24
2018-10-05T11:47:44.693Z,50.92
2018-10-05T11:48:44.693Z,50.62
2018-10-05T11:49:44.710Z,52.22
2018-10-05T11:50:44.937Z,53.00
2018-10-05T11:51:45.536Z,50.79
2018-10-05T11:52:45.677Z,49.11
2018-10-05T11:53:44.699Z,48.89
2018-10-05T11:54:46.619Z,49.41
2018-10-05T11:55:45.179Z,50.31
2018-10-05T11:56:45.817Z,50.29
2018-10-05T11:57:44.581Z,50.09
2018-10-05T11:58:44.580Z,48.49
2018-10-05T11:59:44.670Z,49.87
2018-10-05T12:00:44.585Z,50.07
2018-10-05T12:01:44.753Z,49.46
2018-10-05T12:02:44.585Z,48.84
2018-10-05T12:03:44.582Z,49.14
2018-10-05T12:04:44.585Z,49.54
2018-10-05T12:05:45.210Z,48.24
2018-10-05T12:06:44.589Z,49.32
2018-10-05T12:07:44.588Z,48.52
2018-10-05T12:08:44.605Z,46.81
2018-10-05T12:09:44.467Z,47.79
2018-10-05T12:10:44.487Z,47.69
2018-10-05T12:11:44.469Z,48.17
2018-10-05T12:12:44.615Z,47.17
2018-10-05T12:13:46.235Z,46.45
2018-10-05T12:14:44.608Z,47.65
2018-10-05T12:15:47.476Z,47.15
2018-10-05T12:16:44.471Z,46.55
2018-10-05T12:17:44.353Z,46.43
2018-10-05T12:18:44.593Z,47.10
2018-10-05T12:19:44.515Z,45.71
2018-10-05T12:20:44.356Z,44.89
2018-10-05T12:21:44.356Z,45.51
2018-10-05T12:22:44.356Z,43.29
2018-10-05T12:23:44.357Z,43.39
2018-10-05T12:24:44.360Z,45.18
2018-10-05T12:25:44.359Z,46.19
2018-10-05T12:26:44.441Z,45.76
2018-10-05T12:27:44.360Z,45.17
2018-10-05T12:28:44.363Z,45.44
2018-10-05T12:29:44.360Z,44.65
2018-10-05T12:30:44.246Z,45.12
2018-10-05T12:31:44.243Z,44.92
2018-10-05T12:32:44.243Z,42.83
2018-10-05T12:33:44.243Z,42.83
2018-10-05T12:34:44.175Z,42.73
2018-10-05T12:35:44.366Z,43.03
2018-10-05T12:36:44.246Z,42.93
2018-10-05T12:37:44.250Z,42.73
2018-10-05T12:38:44.246Z,42.13
2018-10-05T12:39:44.247Z,43.11
2018-10-05T12:40:44.179Z,43.21
2018-10-05T12:41:44.129Z,41.69
2018-10-05T12:42:44.130Z,43.38
2018-10-05T12:43:44.064Z,42.19
2018-10-05T12:44:44.149Z,42.59
2018-10-05T12:45:44.166Z,40.60
2018-10-05T12:46:44.064Z,40.60
2018-10-05T12:47:44.133Z,41.97
2018-10-05T12:48:44.065Z,42.94
2018-10-05T12:49:44.067Z,41.75
2018-10-05T12:50:44.135Z,41.63
2018-10-05T12:51:44.135Z,41.93
2018-10-05T12:52:44.017Z,39.92
2018-10-05T12:53:44.020Z,39.90
2018-10-05T12:54:43.955Z,40.60
2018-10-05T12:55:43.954Z,41.77
2018-10-05T12:56:44.020Z,39.29
2018-10-05T12:57:44.024Z,38.30